Crymych, United Kingdom
Current Conditions -  °F | °C
As of 1:50 AM on Friday 19 Dec 2014 (Local Time) from EGOP Reporting Station
Broken Clouds Broken Clouds  
Wind Chill: 54°   Ceiling: 400
Heat Index: 54°   Visibility: 2.3mi
Dew Point: 54°   Wind: 26mph
Humidity: 100%   Direction: 260°W
Pressure: 29.77"   Gusts: NA
Location:  52.03°N, 4.68°W
Report Text: EGOP 190150Z AUTO 26023KT 3800 // BKN004/// BKN015/// 12/12 Q1008
Loading
Personal Weather Stations






























Interactive Weather Map New forecast layout! Learn more

10-Day Weather Forecast

Advertisements
Track Severe Weather on mobile